sensor_id;sensor_type;location;lat;lon;timestamp;temperature;humidity
3360;DHT22;1693;49.602;11.046;2022-09-17T14:49:51;21.80;93.90
3360;DHT22;1693;49.602;11.046;2022-09-17T14:52:25;22.70;94.70
3360;DHT22;1693;49.602;11.046;2022-09-17T14:55:16;22.60;94.00
3360;DHT22;1693;49.602;11.046;2022-09-17T14:57:45;23.50;94.60
3360;DHT22;1693;49.602;11.046;2022-09-17T15:00:16;23.80;92.80
3360;DHT22;1693;49.602;11.046;2022-09-17T15:02:51;22.70;93.30
3360;DHT22;1693;49.602;11.046;2022-09-17T15:05:28;23.30;93.40
3360;DHT22;1693;49.602;11.046;2022-09-17T15:08:12;23.40;92.10
3360;DHT22;1693;49.602;11.046;2022-09-17T15:10:47;23.90;91.60
3360;DHT22;1693;49.602;11.046;2022-09-17T15:13:18;23.60;91.40
3360;DHT22;1693;49.602;11.046;2022-09-17T15:16:00;23.60;91.50
3360;DHT22;1693;49.602;11.046;2022-09-17T15:18:37;24.10;90.40
3360;DHT22;1693;49.602;11.046;2022-09-17T15:21:16;23.70;89.10
3360;DHT22;1693;49.602;11.046;2022-09-17T15:23:47;23.20;88.50
3360;DHT22;1693;49.602;11.046;2022-09-17T15:26:21;22.90;87.10
3360;DHT22;1693;49.602;11.046;2022-09-17T15:28:51;23.20;88.20
3360;DHT22;1693;49.602;11.046;2022-09-17T15:31:21;21.10;87.80
3360;DHT22;1693;49.602;11.046;2022-09-17T15:33:49;20.40;92.10
3360;DHT22;1693;49.602;11.046;2022-09-17T15:36:23;21.30;91.80
3360;DHT22;1693;49.602;11.046;2022-09-17T15:38:53;21.00;90.50
3360;DHT22;1693;49.602;11.046;2022-09-17T15:41:30;21.30;91.20
3360;DHT22;1693;49.602;11.046;2022-09-17T15:44:14;21.30;90.20
3360;DHT22;1693;49.602;11.046;2022-09-17T15:46:45;21.10;90.30
3360;DHT22;1693;49.602;11.046;2022-09-17T15:49:30;21.80;89.00
3360;DHT22;1693;49.602;11.046;2022-09-17T15:52:25;21.40;85.70
3360;DHT22;1693;49.602;11.046;2022-09-17T15:54:55;21.00;86.40
3360;DHT22;1693;49.602;11.046;2022-09-17T15:57:25;20.50;86.40
3360;DHT22;1693;49.602;11.046;2022-09-17T15:59:53;20.60;86.50
3360;DHT22;1693;49.602;11.046;2022-09-17T16:02:26;20.10;86.70
3360;DHT22;1693;49.602;11.046;2022-09-17T16:08:22;20.60;87.30
3360;DHT22;1693;49.602;11.046;2022-09-17T16:10:50;20.10;84.70
3360;DHT22;1693;49.602;11.046;2022-09-17T16:13:18;20.50;85.90
3360;DHT22;1693;49.602;11.046;2022-09-17T16:15:45;19.80;87.20
3360;DHT22;1693;49.602;11.046;2022-09-17T16:18:13;18.40;88.40
3360;DHT22;1693;49.602;11.046;2022-09-17T16:20:40;17.00;90.10
3360;DHT22;1693;49.602;11.046;2022-09-17T16:23:08;15.80;92.10
3360;DHT22;1693;49.602;11.046;2022-09-17T16:25:38;15.40;94.20
3360;DHT22;1693;49.602;11.046;2022-09-17T16:28:10;15.00;95.40
3360;DHT22;1693;49.602;11.046;2022-09-17T16:30:42;14.50;97.00
3360;DHT22;1693;49.602;11.046;2022-09-17T16:33:11;14.20;98.30
3360;DHT22;1693;49.602;11.046;2022-09-17T16:35:39;13.70;99.90
3360;DHT22;1693;49.602;11.046;2022-09-17T16:38:07;13.60;99.90
3360;DHT22;1693;49.602;11.046;2022-09-17T16:40:39;13.60;99.90
3360;DHT22;1693;49.602;11.046;2022-09-17T16:43:08;13.40;99.90
3360;DHT22;1693;49.602;11.046;2022-09-17T16:45:36;12.60;99.90
3360;DHT22;1693;49.602;11.046;2022-09-17T16:48:03;11.90;99.90
3360;DHT22;1693;49.602;11.046;2022-09-17T16:50:32;11.20;99.90
3360;DHT22;1693;49.602;11.046;2022-09-17T16:53:01;10.80;99.90
3360;DHT22;1693;49.602;11.046;2022-09-17T16:55:29;10.70;99.90
3360;DHT22;1693;49.602;11.046;2022-09-17T16:57:58;10.50;99.90
3360;DHT22;1693;49.602;11.046;2022-09-17T17:00:25;10.30;99.90
3360;DHT22;1693;49.602;11.046;2022-09-17T17:02:56;10.10;99.90
3360;DHT22;1693;49.602;11.046;2022-09-17T17:05:24;10.00;99.90
3360;DHT22;1693;49.602;11.046;2022-09-17T17:07:52;10.00;99.90
3360;DHT22;1693;49.602;11.046;2022-09-17T17:10:21;10.00;99.90
3360;DHT22;1693;49.602;11.046;2022-09-17T17:12:51;9.90;99.90
3360;DHT22;1693;49.602;11.046;2022-09-17T17:15:21;9.90;99.90
3360;DHT22;1693;49.602;11.046;2022-09-17T17:17:50;9.90;99.90
3360;DHT22;1693;49.602;11.046;2022-09-17T17:20:18;9.80;99.90
3360;DHT22;1693;49.602;11.046;2022-09-17T17:22:46;9.70;99.90
3360;DHT22;1693;49.602;11.046;2022-09-17T17:25:16;9.70;99.90
3360;DHT22;1693;49.602;11.046;2022-09-17T17:27:44;9.80;99.90
3360;DHT22;1693;49.602;11.046;2022-09-17T17:30:13;9.80;99.90
3360;DHT22;1693;49.602;11.046;2022-09-17T17:32:44;9.70;99.90
3360;DHT22;1693;49.602;11.046;2022-09-17T17:35:13;9.70;99.90
3360;DHT22;1693;49.602;11.046;2022-09-17T17:37:44;9.60;99.90
3360;DHT22;1693;49.602;11.046;2022-09-17T17:40:13;9.60;99.90
3360;DHT22;1693;49.602;11.046;2022-09-17T17:42:40;9.50;99.90
3360;DHT22;1693;49.602;11.046;2022-09-17T17:45:09;9.50;99.90
3360;DHT22;1693;49.602;11.046;2022-09-17T17:47:38;9.50;99.90
3360;DHT22;1693;49.602;11.046;2022-09-17T17:50:07;9.40;99.90
3360;DHT22;1693;49.602;11.046;2022-09-17T17:52:37;9.40;99.90
3360;DHT22;1693;49.602;11.046;2022-09-17T17:55:07;9.40;99.90
3360;DHT22;1693;49.602;11.046;2022-09-17T17:57:35;9.40;99.90
3360;DHT22;1693;49.602;11.046;2022-09-17T18:00:03;9.40;99.90
3360;DHT22;1693;49.602;11.046;2022-09-17T18:02:32;9.40;99.90
3360;DHT22;1693;49.602;11.046;2022-09-17T18:04:59;9.30;99.90
3360;DHT22;1693;49.602;11.046;2022-09-17T18:07:29;9.30;99.90
3360;DHT22;1693;49.602;11.046;2022-09-17T18:09:57;9.30;99.90
3360;DHT22;1693;49.602;11.046;2022-09-17T18:12:26;9.20;99.90
3360;DHT22;1693;49.602;11.046;2022-09-17T18:14:54;9.20;99.90
3360;DHT22;1693;49.602;11.046;2022-09-17T18:17:21;9.10;99.90
3360;DHT22;1693;49.602;11.046;2022-09-17T18:19:48;9.10;99.90
3360;DHT22;1693;49.602;11.046;2022-09-17T18:22:16;9.10;99.90
3360;DHT22;1693;49.602;11.046;2022-09-17T18:24:45;9.00;99.90
3360;DHT22;1693;49.602;11.046;2022-09-17T18:27:14;9.00;99.90
3360;DHT22;1693;49.602;11.046;2022-09-17T18:29:42;9.00;99.90
3360;DHT22;1693;49.602;11.046;2022-09-17T18:32:11;8.90;99.90
3360;DHT22;1693;49.602;11.046;2022-09-17T18:34:40;8.90;99.90
3360;DHT22;1693;49.602;11.046;2022-09-17T18:37:07;8.90;99.90
3360;DHT22;1693;49.602;11.046;2022-09-17T18:39:35;8.90;99.90
3360;DHT22;1693;49.602;11.046;2022-09-17T18:42:05;8.90;99.90
3360;DHT22;1693;49.602;11.046;2022-09-17T18:44:33;8.90;99.90
3360;DHT22;1693;49.602;11.046;2022-09-17T18:47:02;8.90;99.90
3360;DHT22;1693;49.602;11.046;2022-09-17T18:49:28;8.80;99.90
3360;DHT22;1693;49.602;11.046;2022-09-17T18:51:55;8.80;99.90
3360;DHT22;1693;49.602;11.046;2022-09-17T18:54:23;8.80;99.90
3360;DHT22;1693;49.602;11.046;2022-09-17T18:56:53;8.80;99.90
3360;DHT22;1693;49.602;11.046;2022-09-17T18:59:23;8.70;99.90
3360;DHT22;1693;49.602;11.046;2022-09-17T19:01:54;8.70;99.90
3360;DHT22;1693;49.602;11.046;2022-09-17T19:04:21;8.70;99.90
3360;DHT22;1693;49.602;11.046;2022-09-17T19:06:48;8.70;99.90
3360;DHT22;1693;49.602;11.046;2022-09-17T19:09:15;8.70;99.90
3360;DHT22;1693;49.602;11.046;2022-09-17T19:11:43;8.60;99.90
3360;DHT22;1693;49.602;11.046;2022-09-17T19:14:11;8.60;99.90
3360;DHT22;1693;49.602;11.046;2022-09-17T19:16:41;8.60;99.90
3360;DHT22;1693;49.602;11.046;2022-09-17T19:19:09;8.60;99.90
3360;DHT22;1693;49.602;11.046;2022-09-17T19:21:37;8.50;99.90
3360;DHT22;1693;49.602;11.046;2022-09-17T19:24:07;8.50;99.90
3360;DHT22;1693;49.602;11.046;2022-09-17T19:26:34;8.40;99.90
3360;DHT22;1693;49.602;11.046;2022-09-17T19:29:03;8.30;99.90
3360;DHT22;1693;49.602;11.046;2022-09-17T19:31:32;8.20;99.90
3360;DHT22;1693;49.602;11.046;2022-09-17T19:34:01;8.10;99.90
3360;DHT22;1693;49.602;11.046;2022-09-17T19:36:29;8.10;99.90
3360;DHT22;1693;49.602;11.046;2022-09-17T19:38:57;8.00;99.90
3360;DHT22;1693;49.602;11.046;2022-09-17T19:41:24;7.90;99.90
3360;DHT22;1693;49.602;11.046;2022-09-17T19:43:53;7.90;99.90
3360;DHT22;1693;49.602;11.046;2022-09-17T19:46:24;7.90;99.90
3360;DHT22;1693;49.602;11.046;2022-09-17T19:48:54;7.90;99.90
3360;DHT22;1693;49.602;11.046;2022-09-17T19:51:27;7.90;99.90
3360;DHT22;1693;49.602;11.046;2022-09-17T19:53:57;7.90;99.90
3360;DHT22;1693;49.602;11.046;2022-09-17T19:56:26;8.00;99.90
3360;DHT22;1693;49.602;11.046;2022-09-17T19:58:55;8.00;99.90
3360;DHT22;1693;49.602;11.046;2022-09-17T20:01:23;8.00;99.90
3360;DHT22;1693;49.602;11.046;2022-09-17T20:03:52;8.10;99.90
3360;DHT22;1693;49.602;11.046;2022-09-17T20:06:20;8.20;99.90
3360;DHT22;1693;49.602;11.046;2022-09-17T20:08:52;8.30;99.90
3360;DHT22;1693;49.602;11.046;2022-09-17T20:11:21;8.30;99.90
3360;DHT22;1693;49.602;11.046;2022-09-17T20:13:48;8.30;99.90
3360;DHT22;1693;49.602;11.046;2022-09-17T20:16:20;8.40;99.90
3360;DHT22;1693;49.602;11.046;2022-09-17T20:18:51;8.40;99.90
3360;DHT22;1693;49.602;11.046;2022-09-17T20:21:20;8.40;99.90
3360;DHT22;1693;49.602;11.046;2022-09-17T20:23:48;8.40;99.90
3360;DHT22;1693;49.602;11.046;2022-09-17T20:26:17;8.40;99.90
3360;DHT22;1693;49.602;11.046;2022-09-17T20:28:45;8.40;99.90
3360;DHT22;1693;49.602;11.046;2022-09-17T20:31:19;8.40;99.90
3360;DHT22;1693;49.602;11.046;2022-09-17T20:33:50;8.50;99.90
3360;DHT22;1693;49.602;11.046;2022-09-17T20:36:20;8.50;99.90
3360;DHT22;1693;49.602;11.046;2022-09-17T20:38:49;8.50;99.90
3360;DHT22;1693;49.602;11.046;2022-09-17T20:41:19;8.50;99.90
3360;DHT22;1693;49.602;11.046;2022-09-17T20:43:50;8.50;99.90
3360;DHT22;1693;49.602;11.046;2022-09-17T20:46:18;8.50;99.90
3360;DHT22;1693;49.602;11.046;2022-09-17T20:48:47;8.50;99.90
3360;DHT22;1693;49.602;11.046;2022-09-17T20:51:18;8.50;99.90
3360;DHT22;1693;49.602;11.046;2022-09-17T20:53:46;8.50;99.90
3360;DHT22;1693;49.602;11.046;2022-09-17T20:56:20;8.40;99.90
3360;DHT22;1693;49.602;11.046;2022-09-17T20:58:53;8.40;99.90
3360;DHT22;1693;49.602;11.046;2022-09-17T21:01:22;8.40;99.90
3360;DHT22;1693;49.602;11.046;2022-09-17T21:03:52;8.40;99.90
3360;DHT22;1693;49.602;11.046;2022-09-17T21:06:21;8.50;99.90
3360;DHT22;1693;49.602;11.046;2022-09-17T21:08:49;8.50;99.90
3360;DHT22;1693;49.602;11.046;2022-09-17T21:11:17;8.40;99.90
3360;DHT22;1693;49.602;11.046;2022-09-17T21:13:46;8.50;99.90
3360;DHT22;1693;49.602;11.046;2022-09-17T21:16:14;8.50;99.90
3360;DHT22;1693;49.602;11.046;2022-09-17T21:18:43;8.50;99.90
3360;DHT22;1693;49.602;11.046;2022-09-17T21:21:12;8.40;99.90
3360;DHT22;1693;49.602;11.046;2022-09-17T21:23:39;8.40;99.90
3360;DHT22;1693;49.602;11.046;2022-09-17T21:26:11;8.40;99.90
3360;DHT22;1693;49.602;11.046;2022-09-17T21:28:40;8.50;99.90
3360;DHT22;1693;49.602;11.046;2022-09-17T21:31:11;8.50;99.90
3360;DHT22;1693;49.602;11.046;2022-09-17T21:33:41;8.50;99.90
3360;DHT22;1693;49.602;11.046;2022-09-17T21:36:11;8.50;99.90
3360;DHT22;1693;49.602;11.046;2022-09-17T21:38:49;8.60;99.90
3360;DHT22;1693;49.602;11.046;2022-09-17T21:41:17;8.60;99.90
3360;DHT22;1693;49.602;11.046;2022-09-17T21:43:44;8.70;99.90
3360;DHT22;1693;49.602;11.046;2022-09-17T21:46:14;8.70;99.90
3360;DHT22;1693;49.602;11.046;2022-09-17T21:48:47;8.80;99.90
3360;DHT22;1693;49.602;11.046;2022-09-17T21:51:20;8.80;99.90
3360;DHT22;1693;49.602;11.046;2022-09-17T21:53:49;8.90;99.90
3360;DHT22;1693;49.602;11.046;2022-09-17T21:56:19;8.90;99.90
3360;DHT22;1693;49.602;11.046;2022-09-17T21:58:50;8.90;99.90
3360;DHT22;1693;49.602;11.046;2022-09-17T22:01:21;8.90;99.90
3360;DHT22;1693;49.602;11.046;2022-09-17T22:03:49;8.90;99.90
3360;DHT22;1693;49.602;11.046;2022-09-17T22:06:19;8.90;99.90
3360;DHT22;1693;49.602;11.046;2022-09-17T22:08:48;8.90;99.90
3360;DHT22;1693;49.602;11.046;2022-09-17T22:11:19;9.00;99.90
3360;DHT22;1693;49.602;11.046;2022-09-17T22:13:52;9.00;99.90
3360;DHT22;1693;49.602;11.046;2022-09-17T22:16:25;9.00;99.90
3360;DHT22;1693;49.602;11.046;2022-09-17T22:18:52;9.10;99.90
3360;DHT22;1693;49.602;11.046;2022-09-17T22:21:21;9.10;99.90
3360;DHT22;1693;49.602;11.046;2022-09-17T22:23:49;9.10;99.90
3360;DHT22;1693;49.602;11.046;2022-09-17T22:26:17;9.20;99.90
3360;DHT22;1693;49.602;11.046;2022-09-17T22:28:46;9.10;99.90
3360;DHT22;1693;49.602;11.046;2022-09-17T22:31:16;9.20;99.90
3360;DHT22;1693;49.602;11.046;2022-09-17T22:33:47;9.30;99.90
3360;DHT22;1693;49.602;11.046;2022-09-17T22:36:15;9.30;99.90
3360;DHT22;1693;49.602;11.046;2022-09-17T22:38:46;9.40;99.90
3360;DHT22;1693;49.602;11.046;2022-09-17T22:41:15;9.40;99.90
3360;DHT22;1693;49.602;11.046;2022-09-17T22:43:44;9.30;99.90
3360;DHT22;1693;49.602;11.046;2022-09-17T22:46:14;9.30;99.90
3360;DHT22;1693;49.602;11.046;2022-09-17T22:48:43;9.30;99.90
3360;DHT22;1693;49.602;11.046;2022-09-17T22:51:13;9.20;99.90
3360;DHT22;1693;49.602;11.046;2022-09-17T22:53:41;9.20;99.90
3360;DHT22;1693;49.602;11.046;2022-09-17T22:56:11;9.10;99.90
3360;DHT22;1693;49.602;11.046;2022-09-17T22:58:39;9.00;99.90
3360;DHT22;1693;49.602;11.046;2022-09-17T23:01:09;9.00;99.90
3360;DHT22;1693;49.602;11.046;2022-09-17T23:03:37;8.90;99.90
3360;DHT22;1693;49.602;11.046;2022-09-17T23:06:10;8.80;99.90
3360;DHT22;1693;49.602;11.046;2022-09-17T23:08:40;8.70;99.90
3360;DHT22;1693;49.602;11.046;2022-09-17T23:11:15;8.70;99.90
3360;DHT22;1693;49.602;11.046;2022-09-17T23:13:44;8.70;99.90
3360;DHT22;1693;49.602;11.046;2022-09-17T23:16:11;8.70;99.90
3360;DHT22;1693;49.602;11.046;2022-09-17T23:18:48;8.70;99.90
3360;DHT22;1693;49.602;11.046;2022-09-17T23:21:18;8.70;99.90
3360;DHT22;1693;49.602;11.046;2022-09-17T23:23:49;8.70;99.90
3360;DHT22;1693;49.602;11.046;2022-09-17T23:26:18;8.70;99.90
3360;DHT22;1693;49.602;11.046;2022-09-17T23:28:45;8.70;99.90
3360;DHT22;1693;49.602;11.046;2022-09-17T23:31:14;8.60;99.90
3360;DHT22;1693;49.602;11.046;2022-09-17T23:33:42;8.60;99.90
3360;DHT22;1693;49.602;11.046;2022-09-17T23:36:10;8.60;99.90
3360;DHT22;1693;49.602;11.046;2022-09-17T23:38:39;8.60;99.90
3360;DHT22;1693;49.602;11.046;2022-09-17T23:41:10;8.70;99.90
3360;DHT22;1693;49.602;11.046;2022-09-17T23:43:39;8.80;99.90
3360;DHT22;1693;49.602;11.046;2022-09-17T23:46:07;8.80;99.90
3360;DHT22;1693;49.602;11.046;2022-09-17T23:48:34;8.70;99.90
3360;DHT22;1693;49.602;11.046;2022-09-17T23:51:01;8.70;99.90
3360;DHT22;1693;49.602;11.046;2022-09-17T23:53:28;8.80;99.90
3360;DHT22;1693;49.602;11.046;2022-09-17T23:55:56;8.80;99.90
3360;DHT22;1693;49.602;11.046;2022-09-17T23:58:28;8.70;99.90
